Time;durP1;ratioP1;P1;durP2;ratioP2;P2;SDS_P1;SDS_P2;PMS_P1;PMS_P2;Temp;Humidity;BMP_temperature;BMP_pressure;BME280_temperature;BME280_humidity;BME280_pressure;Samples;Min_cycle;Max_cycle;Signal;HPM_P1;HPM_P2
2022/02/06 00:02:01;;;;;;;4.82;2.25;;;;;;;;;;5072319;28;20031;-49
2022/02/06 00:04:27;;;;;;;4.68;2.22;;;;;;;;;;5072886;28;20016;-45
2022/02/06 00:06:53;;;;;;;4.25;2.08;;;;;;;;;;5072715;28;20035;-45
2022/02/06 00:09:20;;;;;;;3.83;2.08;;;;;;;;;;5072170;28;20021;-46
2022/02/06 00:11:46;;;;;;;4.35;2.00;;;;;;;;;;5072551;28;20029;-45
2022/02/06 00:14:12;;;;;;;4.07;1.95;;;;;;;;;;5071488;28;20036;-45
2022/02/06 00:16:38;;;;;;;7.40;2.83;;;;;;;;;;5072549;28;20038;-45
2022/02/06 00:19:04;;;;;;;2.92;1.83;;;;;;;;;;5072100;28;20024;-45
2022/02/06 00:21:32;;;;;;;3.05;2.05;;;;;;;;;;5072249;28;20526;-45
2022/02/06 00:24:00;;;;;;;4.53;1.83;;;;;;;;;;5072323;28;20163;-45
2022/02/06 00:29:23;;;;;;;;;;;;;;;;;;5073023;28;20033;-46
2022/02/06 00:31:57;;;;;;;4.18;2.10;;;;;;;;;;5072503;28;20344;-45
2022/02/06 00:39:46;;;;;;;4.70;1.55;;;;;;;;;;5072175;28;20059;-45
2022/02/06 00:42:12;;;;;;;3.15;1.67;;;;;;;;;;5071280;28;20025;-46
2022/02/06 00:44:38;;;;;;;4.03;1.90;;;;;;;;;;5071848;28;20461;-46
2022/02/06 00:47:05;;;;;;;3.70;1.50;;;;;;;;;;5071121;28;20040;-49
2022/02/06 00:49:32;;;;;;;2.42;1.40;;;;;;;;;;5072081;28;20020;-49
2022/02/06 00:52:11;;;;;;;3.65;1.95;;;;;;;;;;5071834;28;20032;-47
2022/02/06 00:54:37;;;;;;;4.00;2.00;;;;;;;;;;5071972;28;20111;-47
2022/02/06 00:57:03;;;;;;;3.78;1.95;;;;;;;;;;5071731;28;20154;-49
2022/02/06 00:59:29;;;;;;;3.92;2.00;;;;;;;;;;5071599;28;20074;-45
2022/02/06 01:01:55;;;;;;;2.75;2.20;;;;;;;;;;5072969;28;20339;-45
2022/02/06 01:04:21;;;;;;;1.85;1.27;;;;;;;;;;5071571;28;20027;-45
2022/02/06 01:06:48;;;;;;;3.30;1.85;;;;;;;;;;5071794;28;20040;-45
2022/02/06 01:09:15;;;;;;;2.90;1.80;;;;;;;;;;5070926;28;20029;-45
2022/02/06 01:11:41;;;;;;;3.08;1.38;;;;;;;;;;5071995;28;20047;-46
2022/02/06 01:16:46;;;;;;;2.25;1.60;;;;;;;;;;5071548;28;20035;-45
2022/02/06 01:19:21;;;;;;;3.20;1.50;;;;;;;;;;5071102;28;20025;-45
2022/02/06 01:22:00;;;;;;;2.28;1.48;;;;;;;;;;5071955;28;20524;-45
2022/02/06 01:24:49;;;;;;;3.17;1.77;;;;;;;;;;5071010;28;20025;-47
2022/02/06 01:27:21;;;;;;;2.03;1.08;;;;;;;;;;5051026;28;20033;-46
2022/02/06 01:29:56;;;;;;;1.95;1.40;;;;;;;;;;5051937;28;20021;-46
2022/02/06 01:32:29;;;;;;;3.00;1.55;;;;;;;;;;5060729;28;20040;-46
2022/02/06 01:35:02;;;;;;;2.05;1.50;;;;;;;;;;5072000;28;20021;-46
2022/02/06 01:37:44;;;;;;;2.95;1.40;;;;;;;;;;5070947;28;20040;-46
2022/02/06 01:41:03;;;;;;;2.28;1.30;;;;;;;;;;5070457;28;20066;-45
2022/02/06 01:43:05;;;;;;;3.22;1.55;;;;;;;;;;5053786;28;20032;-45
2022/02/06 01:46:05;;;;;;;1.77;1.25;;;;;;;;;;5071353;28;20424;-45
2022/02/06 02:04:47;;;;;;;2.25;1.15;;;;;;;;;;5075336;28;20431;-45
2022/02/06 02:20:57;;;;;;;2.92;1.20;;;;;;;;;;5074261;28;20259;-45
2022/02/06 02:47:38;;;;;;;1.90;1.17;;;;;;;;;;5074074;28;20040;-45
2022/02/06 02:50:10;;;;;;;2.67;1.27;;;;;;;;;;5074431;28;20027;-45
2022/02/06 02:52:56;;;;;;;2.97;1.10;;;;;;;;;;5074179;28;20060;-45
2022/02/06 03:00:56;;;;;;;3.90;1.33;;;;;;;;;;5074164;28;20037;-46
2022/02/06 03:03:26;;;;;;;1.27;0.77;;;;;;;;;;5073552;28;20017;-46
2022/02/06 03:05:54;;;;;;;2.65;1.33;;;;;;;;;;5055948;28;20032;-45
2022/02/06 03:08:21;;;;;;;3.30;0.90;;;;;;;;;;5073129;28;20024;-46
2022/02/06 03:10:50;;;;;;;1.55;0.77;;;;;;;;;;5073812;28;20029;-45
2022/02/06 03:13:18;;;;;;;2.00;1.00;;;;;;;;;;5073212;28;20024;-45
2022/02/06 03:15:49;;;;;;;2.10;1.40;;;;;;;;;;5074058;28;20024;-45
2022/02/06 03:18:19;;;;;;;1.35;1.05;;;;;;;;;;5072780;28;20021;-45
2022/02/06 03:20:45;;;;;;;1.77;0.90;;;;;;;;;;5073376;28;21375;-45
2022/02/06 03:23:13;;;;;;;2.65;1.25;;;;;;;;;;5069373;28;20013;-45
2022/02/06 03:25:55;;;;;;;2.88;0.95;;;;;;;;;;5072015;28;20016;-45
2022/02/06 03:28:21;;;;;;;2.25;1.00;;;;;;;;;;5070543;28;20051;-45
2022/02/06 03:30:47;;;;;;;1.65;1.05;;;;;;;;;;5072637;28;20027;-45
2022/02/06 03:33:13;;;;;;;3.08;1.08;;;;;;;;;;5053788;28;20027;-45
2022/02/06 03:35:39;;;;;;;2.15;1.10;;;;;;;;;;5071996;28;20399;-45
2022/02/06 03:38:06;;;;;;;3.22;1.02;;;;;;;;;;5071264;28;20057;-46
2022/02/06 03:40:50;;;;;;;6.72;2.40;;;;;;;;;;5071303;28;20035;-45
2022/02/06 03:43:26;;;;;;;1.42;0.70;;;;;;;;;;5069713;28;20090;-46
2022/02/06 03:46:06;;;;;;;2.25;1.00;;;;;;;;;;5069402;28;20382;-45
2022/02/06 03:48:44;;;;;;;2.63;1.20;;;;;;;;;;5069254;28;20039;-48
2022/02/06 03:51:18;;;;;;;2.58;1.25;;;;;;;;;;5068858;28;20025;-49
2022/02/06 03:53:46;;;;;;;1.70;0.93;;;;;;;;;;5071933;28;20016;-45
2022/02/06 03:56:12;;;;;;;1.75;0.95;;;;;;;;;;5068587;28;20082;-46
2022/02/06 03:58:38;;;;;;;2.63;1.50;;;;;;;;;;5071685;28;20077;-45
2022/02/06 04:01:04;;;;;;;1.70;0.82;;;;;;;;;;5071583;28;20020;-45
2022/02/06 04:03:30;;;;;;;2.03;0.93;;;;;;;;;;5071107;28;20445;-45
2022/02/06 04:05:56;;;;;;;2.20;1.05;;;;;;;;;;5071196;28;20039;-45
2022/02/06 04:08:22;;;;;;;3.20;1.13;;;;;;;;;;5070930;28;20016;-45
2022/02/06 04:10:51;;;;;;;2.35;1.05;;;;;;;;;;5071125;28;20048;-45
2022/02/06 04:13:22;;;;;;;1.67;0.70;;;;;;;;;;5070879;28;20384;-45
2022/02/06 04:15:54;;;;;;;2.08;0.80;;;;;;;;;;5071361;28;20362;-45
2022/02/06 04:18:29;;;;;;;1.23;0.75;;;;;;;;;;5070774;28;20024;-45
2022/02/06 04:20:57;;;;;;;1.00;0.60;;;;;;;;;;5069311;28;20134;-45
2022/02/06 04:23:23;;;;;;;1.40;0.73;;;;;;;;;;5070633;28;20074;-45
2022/02/06 04:25:49;;;;;;;1.85;0.80;;;;;;;;;;5070835;28;20025;-48
2022/02/06 04:28:15;;;;;;;1.50;1.05;;;;;;;;;;5071419;28;20020;-45
2022/02/06 04:30:41;;;;;;;1.80;0.82;;;;;;;;;;5072260;28;20021;-45
2022/02/06 04:33:07;;;;;;;1.77;0.90;;;;;;;;;;5071898;28;20033;-51
2022/02/06 04:35:36;;;;;;;1.60;1.10;;;;;;;;;;5072174;28;20032;-45
2022/02/06 05:13:42;;;;;;;1.52;0.70;;;;;;;;;;5071791;28;20071;-48
2022/02/06 05:29:26;;;;;;;1.17;0.75;;;;;;;;;;5071201;28;20059;-49
2022/02/06 05:34:18;;;;;;;0.88;0.70;;;;;;;;;;5070777;28;20158;-45
2022/02/06 05:36:44;;;;;;;2.00;0.73;;;;;;;;;;5071183;28;20028;-45
2022/02/06 05:39:10;;;;;;;2.30;0.80;;;;;;;;;;5071044;28;20039;-49
2022/02/06 05:41:37;;;;;;;2.83;0.90;;;;;;;;;;5071397;28;20031;-45
2022/02/06 05:44:03;;;;;;;0.85;0.75;;;;;;;;;;5071052;28;20032;-45
2022/02/06 05:46:29;;;;;;;1.67;0.70;;;;;;;;;;5070613;28;20178;-45
2022/02/06 05:48:55;;;;;;;0.70;0.50;;;;;;;;;;5071134;28;20499;-45
2022/02/06 05:51:22;;;;;;;0.95;0.57;;;;;;;;;;5070834;28;20044;-45
2022/02/06 05:53:48;;;;;;;1.48;0.82;;;;;;;;;;5071075;28;20133;-45
2022/02/06 05:56:17;;;;;;;0.93;0.63;;;;;;;;;;5070364;28;20032;-46
2022/02/06 05:58:46;;;;;;;0.90;0.50;;;;;;;;;;5071275;28;20028;-45
2022/02/06 06:01:12;;;;;;;1.27;0.82;;;;;;;;;;5070883;28;20028;-49
2022/02/06 06:03:38;;;;;;;1.45;0.73;;;;;;;;;;5070998;28;20020;-45
2022/02/06 06:06:04;;;;;;;1.33;0.70;;;;;;;;;;5071001;28;20032;-45
2022/02/06 06:08:30;;;;;;;2.65;0.70;;;;;;;;;;5070525;28;20036;-45
2022/02/06 06:10:56;;;;;;;2.55;0.90;;;;;;;;;;5071449;28;20029;-44
2022/02/06 06:13:22;;;;;;;1.15;0.70;;;;;;;;;;5070569;28;20149;-45
2022/02/06 06:15:48;;;;;;;3.83;1.42;;;;;;;;;;5071066;28;20027;-45
2022/02/06 06:18:15;;;;;;;1.50;0.80;;;;;;;;;;5070572;28;20020;-45
2022/02/06 06:20:44;;;;;;;1.48;0.70;;;;;;;;;;5071214;28;20033;-45
2022/02/06 06:23:10;;;;;;;1.45;0.70;;;;;;;;;;5071222;28;20023;-49
2022/02/06 06:25:39;;;;;;;1.77;0.68;;;;;;;;;;5070665;28;20017;-45
2022/02/06 06:28:05;;;;;;;0.93;0.60;;;;;;;;;;5070933;28;20461;-45
2022/02/06 06:30:31;;;;;;;1.02;0.70;;;;;;;;;;5070456;28;20024;-45
2022/02/06 06:32:57;;;;;;;0.57;0.50;;;;;;;;;;5071049;28;20112;-45
2022/02/06 06:35:23;;;;;;;1.27;0.75;;;;;;;;;;5054834;28;20482;-45
2022/02/06 06:37:51;;;;;;;1.52;0.70;;;;;;;;;;5074378;28;20045;-47
2022/02/06 06:40:17;;;;;;;1.52;0.80;;;;;;;;;;5073988;28;20090;-46
2022/02/06 06:42:44;;;;;;;1.67;0.95;;;;;;;;;;5074117;28;20024;-45
2022/02/06 06:45:10;;;;;;;2.70;0.90;;;;;;;;;;5074257;28;20071;-47
2022/02/06 06:47:36;;;;;;;1.20;0.77;;;;;;;;;;5073294;28;20072;-45
2022/02/06 06:50:03;;;;;;;2.50;0.82;;;;;;;;;;5074574;28;20033;-45
2022/02/06 06:52:29;;;;;;;2.40;0.60;;;;;;;;;;5073617;28;20028;-47
2022/02/06 06:55:03;;;;;;;0.65;0.50;;;;;;;;;;5074238;28;20024;-45
2022/02/06 06:57:37;;;;;;;1.55;0.73;;;;;;;;;;5073423;28;20029;-45
2022/02/06 07:02:33;;;;;;;1.50;0.70;;;;;;;;;;5073406;28;20522;-45
2022/02/06 07:05:03;;;;;;;1.40;0.63;;;;;;;;;;5074068;28;20028;-45
2022/02/06 07:07:29;;;;;;;1.23;0.60;;;;;;;;;;5071919;28;20033;-47
2022/02/06 07:09:55;;;;;;;0.73;0.45;;;;;;;;;;5072777;28;20374;-45
2022/02/06 07:12:21;;;;;;;4.28;0.93;;;;;;;;;;5068980;28;20130;-45
2022/02/06 07:14:48;;;;;;;1.30;0.60;;;;;;;;;;5071963;28;20039;-45
2022/02/06 07:17:15;;;;;;;2.25;0.60;;;;;;;;;;5070674;28;20086;-48
2022/02/06 07:19:41;;;;;;;1.00;0.50;;;;;;;;;;5071953;28;20032;-45
2022/02/06 07:22:11;;;;;;;2.13;0.70;;;;;;;;;;5071865;28;20036;-45
2022/02/06 07:24:37;;;;;;;1.98;0.80;;;;;;;;;;5070896;28;20036;-45
2022/02/06 07:27:15;;;;;;;0.77;0.40;;;;;;;;;;5071667;28;20028;-49
2022/02/06 07:29:41;;;;;;;0.90;0.60;;;;;;;;;;5072425;28;20043;-45
2022/02/06 07:32:08;;;;;;;4.20;0.93;;;;;;;;;;5071534;28;20031;-45
2022/02/06 07:34:34;;;;;;;0.73;0.65;;;;;;;;;;5072012;28;20096;-47
2022/02/06 07:37:00;;;;;;;1.65;0.70;;;;;;;;;;5072944;28;20052;-45
2022/02/06 07:39:26;;;;;;;1.02;0.60;;;;;;;;;;5072161;28;20471;-44
2022/02/06 07:41:52;;;;;;;2.05;0.73;;;;;;;;;;5073269;28;20028;-45
2022/02/06 07:44:18;;;;;;;1.88;0.80;;;;;;;;;;5072411;28;20427;-46
2022/02/06 07:46:47;;;;;;;1.63;0.70;;;;;;;;;;5071862;28;20029;-45
2022/02/06 07:49:14;;;;;;;1.40;0.50;;;;;;;;;;5072867;28;20384;-49
2022/02/06 07:51:40;;;;;;;0.73;0.65;;;;;;;;;;5073023;28;20103;-46
2022/02/06 07:54:07;;;;;;;1.92;0.68;;;;;;;;;;5073312;28;20052;-45
2022/02/06 07:56:33;;;;;;;3.63;1.10;;;;;;;;;;5071803;28;20025;-48
2022/02/06 07:58:59;;;;;;;1.85;0.90;;;;;;;;;;5072215;28;20070;-45
2022/02/06 08:01:25;;;;;;;5.45;0.82;;;;;;;;;;5072050;28;20025;-44
2022/02/06 08:03:51;;;;;;;1.05;0.50;;;;;;;;;;5071809;28;20491;-47
2022/02/06 08:06:18;;;;;;;2.15;1.02;;;;;;;;;;5071633;28;20070;-46
2022/02/06 08:08:44;;;;;;;0.90;0.60;;;;;;;;;;5072606;28;20427;-46
2022/02/06 08:11:14;;;;;;;1.00;0.52;;;;;;;;;;5072941;28;20079;-48
2022/02/06 08:13:44;;;;;;;3.50;0.75;;;;;;;;;;5072492;28;20031;-46
2022/02/06 08:16:11;;;;;;;4.07;1.00;;;;;;;;;;5072596;28;20056;-46
2022/02/06 08:18:40;;;;;;;3.15;0.70;;;;;;;;;;5071815;28;20111;-47
2022/02/06 08:21:09;;;;;;;2.25;0.93;;;;;;;;;;5072685;28;20024;-45
2022/02/06 08:23:36;;;;;;;2.47;0.82;;;;;;;;;;5071578;28;20047;-45
2022/02/06 08:26:02;;;;;;;3.28;0.77;;;;;;;;;;5072239;28;20036;-45
2022/02/06 08:28:28;;;;;;;1.90;1.00;;;;;;;;;;5071293;28;20100;-45
2022/02/06 08:30:54;;;;;;;1.77;0.77;;;;;;;;;;5072245;28;20056;-46
2022/02/06 08:33:21;;;;;;;4.70;0.75;;;;;;;;;;5054821;28;20621;-46
2022/02/06 08:35:47;;;;;;;3.45;1.10;;;;;;;;;;5060878;28;20025;-45
2022/02/06 08:38:13;;;;;;;6.22;1.00;;;;;;;;;;5085974;28;20091;-45
2022/02/06 08:40:40;;;;;;;4.80;1.00;;;;;;;;;;5091561;28;20032;-45
2022/02/06 08:43:06;;;;;;;1.77;0.70;;;;;;;;;;5092632;28;20373;-45
2022/02/06 08:45:33;;;;;;;4.82;1.27;;;;;;;;;;5091224;28;20020;-45
2022/02/06 08:47:59;;;;;;;1.88;0.80;;;;;;;;;;5091767;28;20120;-45
2022/02/06 08:50:25;;;;;;;3.45;1.13;;;;;;;;;;5091329;28;20052;-48
2022/02/06 08:52:53;;;;;;;2.15;0.70;;;;;;;;;;5091835;28;20380;-47
2022/02/06 08:55:20;;;;;;;4.00;1.30;;;;;;;;;;5091373;28;20046;-45
2022/02/06 08:57:50;;;;;;;1.85;0.70;;;;;;;;;;5092360;28;20084;-48
2022/02/06 09:00:21;;;;;;;5.45;2.08;;;;;;;;;;5092032;28;20054;-50
2022/02/06 09:02:47;;;;;;;4.20;0.90;;;;;;;;;;5091736;28;20024;-47
2022/02/06 09:05:14;;;;;;;2.35;0.93;;;;;;;;;;5091751;28;20030;-46
2022/02/06 09:07:43;;;;;;;2.20;1.25;;;;;;;;;;5091060;28;20473;-46
2022/02/06 09:10:10;;;;;;;1.65;0.80;;;;;;;;;;5090285;28;20036;-48
2022/02/06 09:12:40;;;;;;;4.03;1.00;;;;;;;;;;5091416;28;20096;-49
2022/02/06 09:15:07;;;;;;;2.72;0.90;;;;;;;;;;5091837;28;20027;-46
2022/02/06 09:17:33;;;;;;;3.40;0.70;;;;;;;;;;5091186;28;20362;-46
2022/02/06 09:19:59;;;;;;;1.60;0.88;;;;;;;;;;5091949;28;20473;-49
2022/02/06 09:22:25;;;;;;;5.40;1.85;;;;;;;;;;5091462;28;20069;-46
2022/02/06 09:24:51;;;;;;;3.38;1.15;;;;;;;;;;5091922;28;20032;-46
2022/02/06 09:27:17;;;;;;;5.65;1.20;;;;;;;;;;5091524;28;20032;-48
2022/02/06 09:29:43;;;;;;;4.18;1.35;;;;;;;;;;5091648;28;20016;-45
2022/02/06 09:37:05;;;;;;;2.03;0.77;;;;;;;;;;5087263;28;20045;-47
2022/02/06 09:39:34;;;;;;;4.38;1.13;;;;;;;;;;5070997;28;20358;-45
2022/02/06 09:42:01;;;;;;;2.55;1.35;;;;;;;;;;5071739;28;20437;-46
2022/02/06 09:44:30;;;;;;;2.80;1.02;;;;;;;;;;5070827;28;20039;-47
2022/02/06 09:46:58;;;;;;;3.65;1.25;;;;;;;;;;5071242;28;20032;-47
2022/02/06 09:49:24;;;;;;;2.55;1.00;;;;;;;;;;5070689;28;20141;-45
2022/02/06 09:51:50;;;;;;;2.65;1.17;;;;;;;;;;5071566;28;20056;-49
2022/02/06 09:54:17;;;;;;;2.78;1.05;;;;;;;;;;5071461;28;20020;-51
2022/02/06 09:56:46;;;;;;;2.70;1.10;;;;;;;;;;5070428;28;20108;-48
2022/02/06 09:59:20;;;;;;;3.17;0.98;;;;;;;;;;5071305;28;20012;-47
2022/02/06 10:01:53;;;;;;;2.85;1.20;;;;;;;;;;5071229;28;20028;-46
2022/02/06 10:04:21;;;;;;;2.17;0.93;;;;;;;;;;5070795;28;20032;-48
2022/02/06 10:06:50;;;;;;;1.75;0.95;;;;;;;;;;5071052;28;20052;-47
2022/02/06 10:09:19;;;;;;;2.13;0.93;;;;;;;;;;5072432;28;20024;-48
2022/02/06 10:11:48;;;;;;;3.85;1.42;;;;;;;;;;5074792;28;20077;-46
2022/02/06 10:14:14;;;;;;;2.97;1.25;;;;;;;;;;5074889;28;20035;-46
2022/02/06 10:16:40;;;;;;;3.28;1.58;;;;;;;;;;5074304;28;20100;-46
2022/02/06 10:19:06;;;;;;;3.40;1.00;;;;;;;;;;5075121;28;20113;-45
2022/02/06 10:21:35;;;;;;;4.65;1.52;;;;;;;;;;5073874;28;20028;-45
2022/02/06 10:24:16;;;;;;;5.43;1.30;;;;;;;;;;5074727;28;20032;-44
2022/02/06 10:26:53;;;;;;;3.97;1.60;;;;;;;;;;5073884;28;20137;-46
2022/02/06 10:32:00;;;;;;;1.77;0.88;;;;;;;;;;5074885;28;20043;-49
2022/02/06 10:34:27;;;;;;;2.53;1.13;;;;;;;;;;5067589;28;20031;-46
2022/02/06 10:37:13;;;;;;;2.63;1.30;;;;;;;;;;5074799;28;20032;-46
2022/02/06 10:39:49;;;;;;;3.53;1.00;;;;;;;;;;5074506;28;20250;-46
2022/02/06 10:42:22;;;;;;;4.18;1.65;;;;;;;;;;5074760;28;20099;-46
2022/02/06 10:44:50;;;;;;;4.28;1.20;;;;;;;;;;5074753;28;20017;-45
2022/02/06 10:47:29;;;;;;;2.50;1.50;;;;;;;;;;5074603;28;20036;-45
2022/02/06 10:50:06;;;;;;;2.65;1.20;;;;;;;;;;5074986;28;20462;-45
2022/02/06 10:52:32;;;;;;;4.45;1.23;;;;;;;;;;5073541;28;20073;-45
2022/02/06 10:55:00;;;;;;;2.90;1.10;;;;;;;;;;5074582;28;20107;-45
2022/02/06 10:57:28;;;;;;;2.72;1.10;;;;;;;;;;5074110;28;20036;-46
2022/02/06 10:59:54;;;;;;;4.57;1.48;;;;;;;;;;5074675;28;20027;-45
2022/02/06 11:02:35;;;;;;;3.35;1.30;;;;;;;;;;5074005;28;20096;-51
2022/02/06 11:05:34;;;;;;;1.90;1.10;;;;;;;;;;5074332;28;20044;-46
2022/02/06 11:08:01;;;;;;;4.07;1.55;;;;;;;;;;5073238;28;20040;-48
2022/02/06 11:10:30;;;;;;;2.78;1.00;;;;;;;;;;5073985;28;20029;-45
2022/02/06 11:12:57;;;;;;;3.20;1.00;;;;;;;;;;5074585;28;20107;-45
2022/02/06 11:15:31;;;;;;;2.33;0.90;;;;;;;;;;5073589;28;20035;-45
2022/02/06 11:18:11;;;;;;;2.00;1.00;;;;;;;;;;5074404;28;20444;-48
2022/02/06 11:20:38;;;;;;;2.75;1.73;;;;;;;;;;5073468;28;20036;-46
2022/02/06 11:23:05;;;;;;;3.55;1.00;;;;;;;;;;5073950;28;20036;-45
2022/02/06 11:25:34;;;;;;;4.95;1.17;;;;;;;;;;5073762;28;20092;-45
2022/02/06 11:28:02;;;;;;;2.35;1.13;;;;;;;;;;5073992;28;20366;-45
2022/02/06 11:30:28;;;;;;;3.28;1.00;;;;;;;;;;5073557;28;20488;-45
2022/02/06 11:32:55;;;;;;;1.98;1.25;;;;;;;;;;5073855;28;20377;-46
2022/02/06 11:35:24;;;;;;;1.92;0.90;;;;;;;;;;5073969;28;20032;-45
2022/02/06 11:43:49;;;;;;;1.80;0.90;;;;;;;;;;5072865;28;20043;-45
2022/02/06 11:46:22;;;;;;;2.67;1.00;;;;;;;;;;5073827;28;20037;-45
2022/02/06 11:48:48;;;;;;;1.35;0.75;;;;;;;;;;5073319;28;20282;-45
2022/02/06 11:51:16;;;;;;;2.80;1.58;;;;;;;;;;5073525;28;20033;-45
2022/02/06 11:53:42;;;;;;;1.75;0.95;;;;;;;;;;5072655;28;20428;-46
2022/02/06 11:56:27;;;;;;;2.13;0.75;;;;;;;;;;5073690;28;20115;-46
2022/02/06 11:59:02;;;;;;;3.40;1.17;;;;;;;;;;5073011;28;20495;-45
2022/02/06 12:01:31;;;;;;;1.40;0.90;;;;;;;;;;5072895;28;20373;-45
2022/02/06 12:03:59;;;;;;;2.03;0.90;;;;;;;;;;5072833;28;20024;-47
2022/02/06 12:06:29;;;;;;;1.95;0.77;;;;;;;;;;5072745;28;20029;-45
2022/02/06 12:08:58;;;;;;;1.65;0.70;;;;;;;;;;5072826;28;20021;-45
2022/02/06 12:11:24;;;;;;;2.47;1.23;;;;;;;;;;5072881;28;20027;-46
2022/02/06 12:14:10;;;;;;;1.33;0.75;;;;;;;;;;5072745;28;20020;-45
2022/02/06 12:16:49;;;;;;;1.48;0.57;;;;;;;;;;5072616;28;20024;-46
2022/02/06 12:19:25;;;;;;;1.92;1.05;;;;;;;;;;5073381;28;20090;-45
2022/02/06 12:21:51;;;;;;;2.28;1.00;;;;;;;;;;5073316;28;20028;-44
2022/02/06 12:24:36;;;;;;;1.70;0.90;;;;;;;;;;5072739;28;20044;-45
2022/02/06 12:27:22;;;;;;;2.58;0.90;;;;;;;;;;5073068;28;20116;-46
2022/02/06 12:29:50;;;;;;;2.70;0.82;;;;;;;;;;5072098;28;20039;-45
2022/02/06 12:32:32;;;;;;;2.10;0.82;;;;;;;;;;5072147;28;20023;-47
2022/02/06 12:37:44;;;;;;;1.95;0.60;;;;;;;;;;5072172;28;20789;-45
2022/02/06 12:40:10;;;;;;;0.60;0.50;;;;;;;;;;5072397;28;20031;-48
2022/02/06 12:42:38;;;;;;;1.63;0.60;;;;;;;;;;5071908;28;20027;-45
2022/02/06 12:45:06;;;;;;;1.60;0.60;;;;;;;;;;5072560;28;20021;-44
2022/02/06 12:47:32;;;;;;;6.05;0.80;;;;;;;;;;5072234;28;20040;-45
2022/02/06 12:49:59;;;;;;;1.58;0.75;;;;;;;;;;5072407;28;20036;-46
2022/02/06 12:52:25;;;;;;;2.72;0.80;;;;;;;;;;5071819;28;20024;-49
2022/02/06 12:54:51;;;;;;;1.75;0.90;;;;;;;;;;5071957;28;20025;-45
2022/02/06 12:57:20;;;;;;;1.98;0.80;;;;;;;;;;5072244;28;20035;-48
2022/02/06 12:59:47;;;;;;;2.60;0.95;;;;;;;;;;5070987;28;20028;-51
2022/02/06 13:02:15;;;;;;;2.65;0.90;;;;;;;;;;5071639;28;20366;-46
2022/02/06 13:04:42;;;;;;;3.40;1.20;;;;;;;;;;5071289;28;20024;-46
2022/02/06 13:07:11;;;;;;;1.88;0.90;;;;;;;;;;5071342;28;20044;-46
2022/02/06 13:09:44;;;;;;;1.27;0.70;;;;;;;;;;5070963;28;20162;-47
2022/02/06 13:12:24;;;;;;;2.13;0.80;;;;;;;;;;5072068;28;20032;-46
2022/02/06 13:17:28;;;;;;;2.55;0.70;;;;;;;;;;5071523;28;20401;-45
2022/02/06 13:22:38;;;;;;;2.20;0.90;;;;;;;;;;5071123;28;20029;-47
2022/02/06 13:33:32;;;;;;;2.38;0.57;;;;;;;;;;5071416;28;20031;-46
2022/02/06 13:36:08;;;;;;;1.83;0.60;;;;;;;;;;5071458;28;20032;-45
2022/02/06 13:38:34;;;;;;;1.23;0.63;;;;;;;;;;5070395;28;20040;-45
2022/02/06 13:41:01;;;;;;;1.63;0.70;;;;;;;;;;5070300;28;20486;-47
2022/02/06 13:43:38;;;;;;;4.03;1.23;;;;;;;;;;5070953;28;20028;-49
2022/02/06 13:46:12;;;;;;;0.98;0.70;;;;;;;;;;5075687;28;20021;-46
2022/02/06 13:48:38;;;;;;;1.85;0.52;;;;;;;;;;5075142;28;20107;-45
2022/02/06 13:51:07;;;;;;;2.15;0.70;;;;;;;;;;5075308;28;20032;-45
2022/02/06 13:53:35;;;;;;;2.67;0.80;;;;;;;;;;5074789;28;20028;-45
2022/02/06 13:56:03;;;;;;;2.55;0.60;;;;;;;;;;5075271;28;20417;-45
2022/02/06 13:58:30;;;;;;;0.77;0.73;;;;;;;;;;5074627;28;20541;-53
2022/02/06 14:01:06;;;;;;;1.63;0.70;;;;;;;;;;5075412;28;20033;-50
2022/02/06 14:03:48;;;;;;;3.58;0.73;;;;;;;;;;5074544;28;20029;-47
2022/02/06 14:06:17;;;;;;;3.75;1.05;;;;;;;;;;5075211;28;20083;-45
2022/02/06 14:09:01;;;;;;;1.67;0.40;;;;;;;;;;5074348;28;20027;-46
2022/02/06 14:11:32;;;;;;;3.88;0.80;;;;;;;;;;5074459;28;20674;-53
2022/02/06 14:14:16;;;;;;;1.80;0.50;;;;;;;;;;5075404;28;20024;-46
2022/02/06 14:16:44;;;;;;;1.00;0.57;;;;;;;;;;5074213;28;20039;-47
2022/02/06 14:19:11;;;;;;;8.05;1.27;;;;;;;;;;5074829;28;20550;-46
2022/02/06 14:21:47;;;;;;;3.63;0.95;;;;;;;;;;5073691;28;20581;-47
2022/02/06 14:24:13;;;;;;;4.72;0.52;;;;;;;;;;5075070;28;20024;-51
2022/02/06 14:26:58;;;;;;;2.03;0.80;;;;;;;;;;5073488;28;20036;-53
2022/02/06 14:29:24;;;;;;;3.83;0.70;;;;;;;;;;5074229;28;20020;-54
2022/02/06 14:31:50;;;;;;;3.75;0.70;;;;;;;;;;5073733;28;20469;-44
2022/02/06 14:34:17;;;;;;;3.28;1.05;;;;;;;;;;5074562;28;20082;-45
2022/02/06 14:37:02;;;;;;;8.90;0.73;;;;;;;;;;5073695;28;20021;-45
2022/02/06 14:39:34;;;;;;;3.20;0.55;;;;;;;;;;5073030;28;20028;-48
2022/02/06 14:42:09;;;;;;;5.88;0.75;;;;;;;;;;5072977;28;20051;-54
2022/02/06 14:44:35;;;;;;;7.32;0.90;;;;;;;;;;5045922;28;20079;-47
2022/02/06 14:47:01;;;;;;;5.40;1.30;;;;;;;;;;5051152;28;20526;-42
2022/02/06 14:49:29;;;;;;;4.97;1.48;;;;;;;;;;5073527;28;20158;-43
2022/02/06 14:51:55;;;;;;;1.70;0.68;;;;;;;;;;5073795;28;20138;-42
2022/02/06 14:54:30;;;;;;;2.58;0.70;;;;;;;;;;5072936;28;20469;-44
2022/02/06 14:56:57;;;;;;;2.47;0.65;;;;;;;;;;5072645;28;20040;-43
2022/02/06 14:59:23;;;;;;;4.90;0.60;;;;;;;;;;5072529;28;20036;-43
2022/02/06 15:01:53;;;;;;;3.25;0.80;;;;;;;;;;5072714;28;20779;-42
2022/02/06 15:04:22;;;;;;;1.65;0.45;;;;;;;;;;5073540;28;20023;-42
2022/02/06 15:06:48;;;;;;;1.85;1.00;;;;;;;;;;5071980;28;20032;-42
2022/02/06 15:09:14;;;;;;;1.08;0.43;;;;;;;;;;5072382;28;20048;-43
2022/02/06 15:11:40;;;;;;;0.70;0.40;;;;;;;;;;5053948;28;20381;-42
2022/02/06 15:14:06;;;;;;;1.15;0.50;;;;;;;;;;5073043;28;20025;-43
2022/02/06 15:16:34;;;;;;;2.17;0.47;;;;;;;;;;5072384;28;20046;-44
2022/02/06 15:19:12;;;;;;;2.00;0.65;;;;;;;;;;5072798;28;20016;-43
2022/02/06 15:21:38;;;;;;;3.08;0.65;;;;;;;;;;5071755;28;20056;-43
2022/02/06 15:24:05;;;;;;;1.15;0.50;;;;;;;;;;5072749;28;20063;-43
2022/02/06 15:26:31;;;;;;;1.17;0.40;;;;;;;;;;5072023;28;20032;-47
2022/02/06 15:28:57;;;;;;;0.82;0.40;;;;;;;;;;5071802;28;20241;-44
2022/02/06 15:31:23;;;;;;;2.10;0.60;;;;;;;;;;5071960;28;20413;-45
2022/02/06 15:33:50;;;;;;;1.67;0.70;;;;;;;;;;5071645;28;20025;-44
2022/02/06 15:36:16;;;;;;;2.03;0.63;;;;;;;;;;5072240;28;20037;-42
2022/02/06 15:38:44;;;;;;;1.15;0.40;;;;;;;;;;5033859;28;1096160;-43
2022/02/06 15:41:12;;;;;;;1.17;0.40;;;;;;;;;;5073449;28;20033;-42
2022/02/06 15:43:38;;;;;;;1.13;0.60;;;;;;;;;;5064276;28;20375;-41
2022/02/06 15:46:04;;;;;;;1.85;0.50;;;;;;;;;;5064852;28;20020;-42
2022/02/06 15:48:30;;;;;;;2.10;0.50;;;;;;;;;;5072986;28;20055;-41
2022/02/06 15:50:57;;;;;;;1.88;0.60;;;;;;;;;;5072967;28;20040;-42
2022/02/06 15:53:23;;;;;;;2.78;0.52;;;;;;;;;;5072907;28;20028;-42
2022/02/06 15:55:49;;;;;;;1.75;0.40;;;;;;;;;;5072569;28;20107;-41
2022/02/06 15:58:15;;;;;;;1.48;0.70;;;;;;;;;;5072346;28;20016;-40
2022/02/06 16:00:41;;;;;;;1.48;0.38;;;;;;;;;;5072258;28;20078;-43
2022/02/06 16:03:07;;;;;;;1.90;1.15;;;;;;;;;;5072526;28;20032;-43
2022/02/06 16:05:34;;;;;;;0.60;0.40;;;;;;;;;;5072409;28;20453;-45
2022/02/06 16:08:00;;;;;;;4.05;1.02;;;;;;;;;;5071625;28;20040;-42
2022/02/06 16:10:26;;;;;;;3.75;0.40;;;;;;;;;;5072738;28;20017;-42
2022/02/06 16:12:52;;;;;;;1.60;0.60;;;;;;;;;;5071348;28;20039;-43
2022/02/06 16:15:18;;;;;;;1.95;1.02;;;;;;;;;;5072497;28;20189;-43
2022/02/06 16:17:44;;;;;;;1.45;0.70;;;;;;;;;;5071522;28;20071;-42
2022/02/06 16:20:13;;;;;;;2.97;0.77;;;;;;;;;;5072568;28;20025;-42
2022/02/06 16:22:39;;;;;;;2.15;1.00;;;;;;;;;;5071095;28;20025;-44
2022/02/06 16:25:06;;;;;;;2.88;0.75;;;;;;;;;;5056909;28;20024;-44
2022/02/06 16:27:32;;;;;;;1.38;0.65;;;;;;;;;;5046607;28;20040;-42
2022/02/06 16:29:59;;;;;;;5.85;1.23;;;;;;;;;;5072058;28;20161;-43
2022/02/06 16:32:26;;;;;;;1.48;0.32;;;;;;;;;;5071642;28;20374;-42
2022/02/06 16:34:52;;;;;;;5.25;1.27;;;;;;;;;;5071517;28;20028;-41
2022/02/06 16:37:18;;;;;;;3.33;0.75;;;;;;;;;;5072220;28;20055;-42
2022/02/06 16:39:45;;;;;;;2.80;0.80;;;;;;;;;;5070797;28;20079;-42
2022/02/06 16:42:12;;;;;;;2.28;0.70;;;;;;;;;;5068551;28;20044;-42
2022/02/06 16:44:39;;;;;;;2.72;0.60;;;;;;;;;;5051270;28;20024;-45
2022/02/06 16:47:06;;;;;;;1.70;0.80;;;;;;;;;;5063593;28;20362;-41
2022/02/06 16:49:33;;;;;;;2.15;0.75;;;;;;;;;;5071671;28;20032;-41
2022/02/06 16:51:59;;;;;;;2.25;0.75;;;;;;;;;;5070873;28;20024;-42
2022/02/06 16:54:26;;;;;;;1.17;0.68;;;;;;;;;;5071427;28;20028;-42
2022/02/06 16:56:52;;;;;;;3.38;0.60;;;;;;;;;;5069535;28;20477;-43
2022/02/06 16:59:18;;;;;;;1.98;0.60;;;;;;;;;;5070707;28;20392;-45
2022/02/06 17:01:48;;;;;;;1.65;0.57;;;;;;;;;;5071130;28;20126;-44
2022/02/06 17:04:15;;;;;;;2.38;0.70;;;;;;;;;;5072103;28;20107;-44
2022/02/06 17:06:41;;;;;;;2.45;0.52;;;;;;;;;;5060033;28;20021;-42
2022/02/06 17:09:11;;;;;;;1.35;0.50;;;;;;;;;;5069779;28;20028;-42
2022/02/06 17:11:37;;;;;;;2.72;0.50;;;;;;;;;;5072056;28;20013;-42
2022/02/06 17:14:04;;;;;;;1.67;0.68;;;;;;;;;;5071883;28;20493;-41
2022/02/06 17:16:31;;;;;;;1.60;0.80;;;;;;;;;;5071768;28;20042;-43
2022/02/06 17:18:57;;;;;;;2.50;0.65;;;;;;;;;;5071538;28;20368;-43
2022/02/06 17:21:24;;;;;;;2.28;0.90;;;;;;;;;;5072397;28;20070;-43
2022/02/06 17:23:50;;;;;;;7.47;1.38;;;;;;;;;;5071554;28;20056;-42
2022/02/06 17:26:16;;;;;;;8.68;2.03;;;;;;;;;;5072624;28;20048;-43
2022/02/06 17:28:42;;;;;;;5.72;1.40;;;;;;;;;;5071388;28;20025;-42